This is the latest recevied weather packets stored in our database for station/object DM4XI-13. If no packets are shown the sender has not sent any weather packets the latest 10 day(s).
| Time | Temp. | Humidity | Pressure | Rain* | Wind** | Luminosity | Snow |
|---|---|---|---|---|---|---|---|
| 1778169074 | 12.22° C | 75% | 1012.3 hPa | 0 mm | 1.34 m/s, 332° | 110 W/m² | - |
| 1778169012 | 12.22° C | 75% | 1012.3 hPa | 0 mm | 0.89 m/s, 225° | 111 W/m² | - |
| 1778168952 | 12.22° C | 75% | 1012.1 hPa | 0 mm | 1.79 m/s, 263° | 112 W/m² | - |
| 1778168891 | 12.22° C | 75% | 1012.3 hPa | 0 mm | 0.89 m/s, 226° | 113 W/m² | - |
| 1778168830 | 12.22° C | 75% | 1012.2 hPa | 0 mm | 1.34 m/s, 277° | 115 W/m² | - |
| 1778168769 | 12.22° C | 74% | 1012.1 hPa | 0 mm | 1.34 m/s, 258° | 117 W/m² | - |
| 1778168708 | 12.22° C | 74% | 1012.3 hPa | 0 mm | 1.34 m/s, 257° | 120 W/m² | - |
| 1778168647 | 12.22° C | 77% | 1012.3 hPa | 0 mm | 1.34 m/s, 260° | 125 W/m² | - |
| 1778168586 | 12.22° C | 76% | 1012.3 hPa | 0 mm | 0.89 m/s, 244° | 131 W/m² | - |
| 1778168525 | 11.67° C | 76% | 1012.2 hPa | 0 mm | 0.89 m/s, 305° | 139 W/m² | - |
| 1778168465 | 11.67° C | 76% | 1012.2 hPa | 0 mm | 1.79 m/s, 320° | 147 W/m² | - |
| 1778168464 | 11.67° C | 76% | 1012.2 hPa | 0 mm | 1.79 m/s, 320° | 147 W/m² | - |
| 1778168403 | 11.67° C | 77% | 1012.2 hPa | 0 mm | 1.34 m/s, 244° | 154 W/m² | - |
| 1778168342 | 11.67° C | 76% | 1012.3 hPa | 0 mm | 1.34 m/s, 286° | 162 W/m² | - |
| 1778168306 | 11.67° C | 77% | 1012.2 hPa | 0 mm | 1.79 m/s, 329° | 174 W/m² | - |
| 1778168281 | 11.67° C | 77% | 1012.2 hPa | 0 mm | 1.34 m/s, 280° | 169 W/m² | - |
| 1778168220 | 11.67° C | 77% | 1012.2 hPa | 0 mm | 1.79 m/s, 329° | 174 W/m² | - |
| 1778168159 | 11.67° C | 77% | 1012.3 hPa | 0 mm | 1.34 m/s, 297° | 174 W/m² | - |
| 1778168098 | 11.67° C | 77% | 1012.2 hPa | 0 mm | 0.89 m/s, 280° | 173 W/m² | - |
| 1778168037 | 11.67° C | 76% | 1012.4 hPa | 0 mm | 0.89 m/s, 300° | 167 W/m² | - |
| 1778167976 | 11.67° C | 76% | 1012.2 hPa | 0 mm | 1.79 m/s, 319° | 152 W/m² | - |
| 1778167915 | 11.67° C | 76% | 1012.1 hPa | 0 mm | 0.89 m/s, 277° | 130 W/m² | - |
| 1778167854 | 11.67° C | 76% | 1012.2 hPa | 0 mm | 0.89 m/s, 220° | 106 W/m² | - |
| 1778167839 | 11.67° C | 79% | 1012.2 hPa | 0 mm | 1.34 m/s, 252° | 59 W/m² | - |
| 1778167793 | 11.67° C | 77% | 1012.2 hPa | 0 mm | 2.24 m/s, 245° | 91 W/m² | - |
* Rain latest hour (hover to see other rain measurements)
** Current wind speed in m/s (hover to see current wind gust speed)